Station Historical Data
Daily Summary for February 8, 2017 Units:  Metric    English   Both
« Previous Day
Next Day »
Daily Weekly Monthly Yearly Custom
  High: Low: Average:
Temperature: 10.8 °C -6.3 °C 0.5 °C
Dew Point: 8.4 °C -8.1 °C -2.7 °C
Humidity: 94% 66% 80%
Wind Speed: 46.7km/h 0km/h 9.8km/h
Wind Gust: 49.9km/h - -
Wind- - WSW
Pressure: 1012.4 hPa 993.1 hPa -
Precipitation: 0 mm    
Historical Graphs
 
 
Tabular Data for February 8, 2017
Time Temperature Dew Point Pressure Wind Wind Speed Wind Gust Humidity Rainfall Rate (Hourly)
00:04 10.8 °C 8.4 °C 993.1 hPa WSW 24.1 km/h 46.7 km/h 85% 0.25 mm
00:09 10.4 °C 8.1 °C 993.1 hPa WSW 25.7 km/h 49.9 km/h 85% 0.25 mm
00:14 10.1 °C 7.7 °C 993.1 hPa SW 25.7 km/h 49.9 km/h 85% 0.25 mm
00:19 9.6 °C 7.3 °C 993.1 hPa SW 22.5 km/h 43.5 km/h 86% 0.25 mm
00:24 9.1 °C 6.9 °C 993.5 hPa WSW 20.9 km/h 41.8 km/h 86% 0.25 mm
00:29 8.7 °C 6.4 °C 993.8 hPa SW 16.1 km/h 41.8 km/h 86% 0.25 mm
00:34 8.2 °C 6.1 °C 993.5 hPa SW 16.1 km/h 35.4 km/h 87% 0.25 mm
00:39 7.8 °C 5.9 °C 993.8 hPa SW 46.7 km/h 46.7 km/h 88% 0 mm
00:44 7.6 °C 5.7 °C 994.1 hPa SW 30.6 km/h 46.7 km/h 88% 0 mm
00:49 7.3 °C 5.4 °C 993.8 hPa SW 14.5 km/h 40.2 km/h 88% 0 mm
00:54 7.1 °C 5.4 °C 994.1 hPa SW 14.5 km/h 37 km/h 89% 0 mm
00:59 6.9 °C 5.2 °C 994.5 hPa WSW 17.7 km/h 35.4 km/h 89% 0 mm
01:04 6.7 °C 5 °C 994.1 hPa WSW 20.9 km/h 37 km/h 89% 0 mm
01:09 6.6 °C 4.9 °C 994.5 hPa SW 20.9 km/h 37 km/h 89% 0 mm
01:14 6.4 °C 4.7 °C 994.8 hPa SW 19.3 km/h 41.8 km/h 89% 0 mm
01:19 6.2 °C 4.7 °C 994.5 hPa SW 19.3 km/h 45.1 km/h 90% 0 mm
01:24 6.1 °C 4.6 °C 994.8 hPa SW 19.3 km/h 45.1 km/h 90% 0 mm
01:29 5.9 °C 4.4 °C 995.1 hPa WSW 19.3 km/h 35.4 km/h 90% 0 mm
01:34 5.7 °C 4.2 °C 995.1 hPa SSW 14.5 km/h 32.2 km/h 90% 0 mm
01:39 5.6 °C 4.3 °C 995.1 hPa WSW 14.5 km/h 38.6 km/h 91% 0.25 mm
01:44 5.4 °C 4.1 °C 995.5 hPa WSW 20.9 km/h 33.8 km/h 91% 0.25 mm
01:49 5.3 °C 3.9 °C 995.5 hPa WSW 19.3 km/h 35.4 km/h 91% 0.25 mm
01:54 5.2 °C 3.8 °C 995.8 hPa SW 32.2 km/h 37 km/h 91% 0.25 mm
01:59 5.1 °C 3.9 °C 995.8 hPa SW 24.1 km/h 35.4 km/h 92% 0.25 mm
02:04 4.9 °C 3.7 °C 996.2 hPa SW 17.7 km/h 38.6 km/h 92% 0.25 mm
02:09 4.7 °C 3.5 °C 996.2 hPa WSW 20.9 km/h 38.6 km/h 92% 0.25 mm
02:14 4.5 °C 3.3 °C 996.2 hPa WSW 20.9 km/h 38.6 km/h 92% 0.25 mm
02:19 4.4 °C 3.2 °C 996.2 hPa WSW 19.3 km/h 40.2 km/h 92% 0.25 mm
02:24 4.3 °C 3.2 °C 996.5 hPa WSW 17.7 km/h 40.2 km/h 92% 0.25 mm
02:29 4.2 °C 3.1 °C 996.8 hPa WSW 16.1 km/h 30.6 km/h 92% 0.25 mm
02:34 4.1 °C 2.9 °C 996.8 hPa SW 14.5 km/h 37 km/h 92% 0.25 mm
02:39 4 °C 2.9 °C 997.2 hPa WSW 19.3 km/h 37 km/h 93% 0 mm
02:44 3.9 °C 2.9 °C 997.2 hPa West 19.3 km/h 30.6 km/h 93% 0 mm
02:49 3.9 °C 2.8 °C 997.2 hPa West 16.1 km/h 29 km/h 93% 0 mm
02:54 3.8 °C 2.8 °C 997.2 hPa WSW 22.5 km/h 33.8 km/h 93% 0 mm
02:59 3.8 °C 2.8 °C 997.2 hPa WSW 24.1 km/h 30.6 km/h 93% 0 mm
03:04 3.8 °C 2.8 °C 997.2 hPa SW 11.3 km/h 40.2 km/h 93% 0 mm
03:09 3.8 °C 2.8 °C 997.5 hPa WSW 16.1 km/h 40.2 km/h 93% 0 mm
03:14 3.7 °C 2.7 °C 997.5 hPa WSW 16.1 km/h 30.6 km/h 93% 0.25 mm
03:19 3.6 °C 2.6 °C 997.9 hPa WSW 17.7 km/h 38.6 km/h 93% 0.25 mm
03:24 3.6 °C 2.6 °C 997.9 hPa WSW 16.1 km/h 38.6 km/h 93% 0.25 mm
03:29 3.5 °C 2.5 °C 997.9 hPa WSW 14.5 km/h 33.8 km/h 93% 0.25 mm
03:34 3.4 °C 2.4 °C 998.2 hPa WSW 16.1 km/h 33.8 km/h 93% 0.25 mm
03:39 3.5 °C 2.5 °C 998.5 hPa WSW 24.1 km/h 35.4 km/h 93% 0.25 mm
03:44 3.4 °C 2.4 °C 998.5 hPa West 14.5 km/h 33.8 km/h 93% 0.25 mm
03:49 3.4 °C 2.4 °C 998.9 hPa SW 25.7 km/h 33.8 km/h 93% 0.25 mm
03:54 3.4 °C 2.5 °C 998.9 hPa WSW 25.7 km/h 32.2 km/h 94% 0.25 mm
03:59 3.3 °C 2.4 °C 999.2 hPa WSW 8 km/h 29 km/h 94% 0.25 mm
04:04 3.3 °C 2.3 °C 999.2 hPa West 20.9 km/h 29 km/h 93% 0.25 mm
04:09 3.2 °C 2.2 °C 999.5 hPa SW 29 km/h 29 km/h 93% 0.51 mm
04:14 3.2 °C 2.2 °C 999.5 hPa WSW 16.1 km/h 33.8 km/h 93% 0.25 mm
04:19 3.1 °C 2.1 °C 999.9 hPa WSW 12.9 km/h 33.8 km/h 93% 0.25 mm
04:24 3.1 °C 2.2 °C 1000.2 hPa West 11.3 km/h 24.1 km/h 94% 0.25 mm
04:29 3.1 °C 2.2 °C 1000.2 hPa West 9.7 km/h 24.1 km/h 94% 0.25 mm
04:34 3.2 °C 2.3 °C 1000.6 hPa West 8 km/h 19.3 km/h 94% 0.25 mm
04:39 3.3 °C 2.4 °C 1000.9 hPa West 11.3 km/h 27.4 km/h 94% 0.25 mm
04:44 3.3 °C 2.3 °C 1000.9 hPa WSW 14.5 km/h 32.2 km/h 93% 0.25 mm
04:49 3.3 °C 2.3 °C 1001.2 hPa WSW 9.7 km/h 24.1 km/h 93% 0.51 mm
04:54 3.3 °C 2.3 °C 1001.6 hPa WSW 19.3 km/h 32.2 km/h 93% 0.51 mm
04:59 3.2 °C 2.2 °C 1001.6 hPa NW 14.5 km/h 25.7 km/h 93% 0.51 mm
05:04 3.2 °C 2 °C 1001.6 hPa WSW 14.5 km/h 20.9 km/h 92% 0.51 mm
05:09 3.2 °C 1.8 °C 1001.6 hPa West 16.1 km/h 20.9 km/h 91% 0.25 mm
05:14 3.2 °C 1.9 °C 1001.6 hPa WSW 12.9 km/h 22.5 km/h 91% 0.25 mm
05:19 3.2 °C 1.7 °C 1001.9 hPa West 9.7 km/h 24.1 km/h 90% 0.25 mm
05:24 3.3 °C 1.6 °C 1001.9 hPa West 9.7 km/h 24.1 km/h 89% 0.25 mm
05:29 3.3 °C 1.6 °C 1002.3 hPa West 12.9 km/h 27.4 km/h 88% 0.25 mm
05:34 3.3 °C 1.2 °C 1002.3 hPa West 14.5 km/h 27.4 km/h 86% 0.25 mm
05:39 3.4 °C 1.2 °C 1002.3 hPa West 14.5 km/h 32.2 km/h 85% 0.25 mm
05:44 3.4 °C 1.1 °C 1002.6 hPa West 12.9 km/h 32.2 km/h 85% 0.25 mm
05:49 3.4 °C 1.2 °C 1002.6 hPa West 14.5 km/h 27.4 km/h 85% 0 mm
05:54 3.4 °C 1.2 °C 1002.6 hPa WSW 12.9 km/h 25.7 km/h 85% 0 mm
05:59 3.4 °C 1.1 °C 1002.9 hPa SW 11.3 km/h 20.9 km/h 85% 0 mm
06:04 3.4 °C 1.1 °C 1002.9 hPa West 16.1 km/h 27.4 km/h 85% 0 mm
06:09 3.3 °C 0.9 °C 1002.9 hPa NW 14.5 km/h 38.6 km/h 84% 0 mm
06:14 3.3 °C 0.9 °C 1003.3 hPa West 6.4 km/h 27.4 km/h 84% 0 mm
06:19 3.3 °C 0.8 °C 1003.3 hPa WNW 4.8 km/h 19.3 km/h 84% 0 mm
06:24 3.2 °C 0.8 °C 1003.6 hPa WNW 11.3 km/h 25.7 km/h 84% 0 mm
06:29 3.1 °C 0.7 °C 1003.9 hPa WNW 14.5 km/h 32.2 km/h 84% 0 mm
06:34 2.8 °C 0.2 °C 1003.9 hPa WNW 16.1 km/h 32.2 km/h 83% 0 mm
06:39 2.7 °C 0.2 °C 1004.3 hPa West 16.1 km/h 33.8 km/h 84% 0 mm
06:44 2.6 °C 0.1 °C 1004.3 hPa West 16.1 km/h 33.8 km/h 84% 0 mm
06:49 2.4 °C 0 °C 1004.6 hPa WNW 9.7 km/h 22.5 km/h 84% 0 mm
06:54 2.4 °C 0.1 °C 1004.6 hPa WSW 9.7 km/h 25.7 km/h 85% 0 mm
06:59 2.3 °C 0.1 °C 1004.6 hPa West 9.7 km/h 25.7 km/h 85% 0 mm
07:04 2.3 °C 0.2 °C 1005 hPa West 9.7 km/h 22.5 km/h 86% 0 mm
07:09 2.2 °C 0.1 °C 1005 hPa West 11.3 km/h 22.5 km/h 86% 0 mm
07:14 2.2 °C 0.1 °C 1005 hPa NW 4.8 km/h 14.5 km/h 86% 0 mm
07:19 2 °C -0.3 °C 1005.3 hPa NNW 8 km/h 14.5 km/h 85% 0 mm
07:24 1.9 °C -0.3 °C 1005.3 hPa WNW 6.4 km/h 22.5 km/h 85% 0 mm
07:29 1.9 °C -0.4 °C 1005.6 hPa WNW 8 km/h 20.9 km/h 85% 0 mm
07:34 1.8 °C -0.8 °C 1005.6 hPa WNW 11.3 km/h 20.9 km/h 83% 0 mm
07:39 1.7 °C -0.9 °C 1006 hPa WNW 11.3 km/h 20.9 km/h 83% 0 mm
07:44 1.5 °C -1.4 °C 1006 hPa WNW 11.3 km/h 29 km/h 81% 0 mm
07:49 1.4 °C -1.3 °C 1006.3 hPa WNW 11.3 km/h 29 km/h 82% 0 mm
07:54 1.3 °C -1.4 °C 1006.3 hPa WNW 9.7 km/h 22.5 km/h 82% 0 mm
07:59 1.2 °C -1.5 °C 1006.7 hPa NNW 6.4 km/h 16.1 km/h 82% 0 mm
08:04 1 °C -2.1 °C 1006.7 hPa WNW 3.2 km/h 20.9 km/h 80% 0 mm
08:09 0.8 °C -2.4 °C 1007 hPa NW 9.7 km/h 20.9 km/h 79% 0 mm
08:14 0.8 °C -2.6 °C 1007 hPa WSW 11.3 km/h 22.5 km/h 78% 0 mm
08:19 0.7 °C -2.5 °C 1007.3 hPa NW 9.7 km/h 19.3 km/h 79% 0 mm
08:24 0.7 °C -2.7 °C 1007.3 hPa NNW 8 km/h 17.7 km/h 78% 0 mm
08:29 0.5 °C -3.1 °C 1007.3 hPa NW 3.2 km/h 22.5 km/h 77% 0 mm
08:34 0.4 °C -3.3 °C 1007.7 hPa NW 17.7 km/h 19.3 km/h 76% 0 mm
08:39 0.3 °C -3.4 °C 1007.7 hPa WNW 9.7 km/h 19.3 km/h 76% 0 mm
08:44 0.2 °C -3.5 °C 1007.7 hPa WNW 9.7 km/h 19.3 km/h 76% 0 mm
08:49 0.2 °C -3.5 °C 1007.7 hPa WNW 8 km/h 19.3 km/h 76% 0 mm
08:54 0.1 °C -3.8 °C 1007.7 hPa NW 9.7 km/h 24.1 km/h 75% 0 mm
08:59 0.1 °C -3.8 °C 1008 hPa WNW 11.3 km/h 24.1 km/h 75% 0 mm
09:04 0.1 °C -3.7 °C 1008 hPa WNW 12.9 km/h 25.7 km/h 76% 0 mm
09:09 0.1 °C -3.8 °C 1008 hPa West 3.2 km/h 24.1 km/h 75% 0 mm
09:14 0.2 °C -3.4 °C 1008.4 hPa NNW 8 km/h 16.1 km/h 77% 0 mm
09:19 0.2 °C -3.7 °C 1008.4 hPa NW 11.3 km/h 19.3 km/h 75% 0 mm
09:24 0.2 °C -3.5 °C 1008.4 hPa West 6.4 km/h 14.5 km/h 76% 0 mm
09:29 0.3 °C -3.4 °C 1008.4 hPa NW 4.8 km/h 11.3 km/h 76% 0 mm
09:34 0.3 °C -3.4 °C 1008.4 hPa West 3.2 km/h 9.7 km/h 76% 0 mm
09:39 0.2 °C -3.5 °C 1008.4 hPa North 8 km/h 14.5 km/h 76% 0 mm
09:44 0.1 °C -3.8 °C 1008.4 hPa NW 6.4 km/h 19.3 km/h 75% 0 mm
09:49 0 °C -3.9 °C 1008.7 hPa NW 8 km/h 19.3 km/h 75% 0 mm
09:54 0.1 °C -3.8 °C 1009 hPa NW 8 km/h 16.1 km/h 75% 0 mm
09:59 0.1 °C -3.8 °C 1009 hPa NW 8 km/h 16.1 km/h 75% 0 mm
10:04 0.1 °C -3.8 °C 1009 hPa NW 6.4 km/h 14.5 km/h 75% 0 mm
10:09 0.1 °C -4 °C 1009 hPa NW 6.4 km/h 16.1 km/h 74% 0 mm
10:14 0.2 °C -3.9 °C 1009 hPa NW 8 km/h 16.1 km/h 74% 0 mm
10:19 0.3 °C -3.8 °C 1009 hPa North 3.2 km/h 16.1 km/h 74% 0 mm
10:24 0.4 °C -3.7 °C 1009.4 hPa WNW 1.6 km/h 16.1 km/h 74% 0 mm
10:29 0.4 °C -3.6 °C 1009.7 hPa West 12.9 km/h 14.5 km/h 75% 0 mm
10:34 0.1 °C -4 °C 1009.7 hPa WSW 4.8 km/h 19.3 km/h 74% 0 mm
10:39 0.1 °C -4.1 °C 1009.7 hPa West 3.2 km/h 17.7 km/h 74% 0 mm
10:44 0.1 °C -3.6 °C 1010 hPa West 8 km/h 17.7 km/h 76% 0 mm
10:49 0 °C -4.1 °C 1010 hPa WNW 6.4 km/h 16.1 km/h 74% 0 mm
10:54 0.1 °C -3.8 °C 1010 hPa WNW 6.4 km/h 14.5 km/h 75% 0 mm
10:59 0.1 °C -4.1 °C 1010 hPa WNW 6.4 km/h 14.5 km/h 74% 0 mm
11:04 0.1 °C -4.1 °C 1010 hPa West 4.8 km/h 12.9 km/h 74% 0 mm
11:09 0.1 °C -4.2 °C 1010 hPa WSW 9.7 km/h 16.1 km/h 73% 0 mm
11:14 0.1 °C -4.4 °C 1010.4 hPa West 8 km/h 16.1 km/h 72% 0 mm
11:19 0 °C -4.4 °C 1010.4 hPa West 8 km/h 16.1 km/h 72% 0 mm
11:24 0 °C -4.4 °C 1010.4 hPa WSW 6.4 km/h 16.1 km/h 72% 0 mm
11:29 0.2 °C -4.1 °C 1010.4 hPa WSW 4.8 km/h 12.9 km/h 73% 0 mm
11:34 0.2 °C -4.4 °C 1010.4 hPa NNW 8 km/h 16.1 km/h 71% 0 mm
11:39 0.1 °C -4.6 °C 1010.7 hPa West 8 km/h 14.5 km/h 71% 0 mm
11:44 0 °C -4.6 °C 1010.4 hPa WNW 6.4 km/h 14.5 km/h 71% 0 mm
11:49 0.1 °C -4.8 °C 1010.7 hPa WNW 8 km/h 16.1 km/h 70% 0 mm
11:54 0.2 °C -4.2 °C 1010.7 hPa WNW 6.4 km/h 16.1 km/h 72% 0 mm
11:59 0.2 °C -4.6 °C 1010.7 hPa WNW 6.4 km/h 14.5 km/h 70% 0 mm
12:04 0.3 °C -4.7 °C 1010.7 hPa WSW 9.7 km/h 14.5 km/h 69% 0 mm
12:09 0.4 °C -4.4 °C 1010.4 hPa WNW 4.8 km/h 11.3 km/h 70% 0 mm
12:14 0.4 °C -4.8 °C 1010.4 hPa NW 6.4 km/h 11.3 km/h 68% 0 mm
12:19 0.5 °C -4.7 °C 1010.4 hPa West 8 km/h 14.5 km/h 68% 0 mm
12:24 0.5 °C -4.7 °C 1010.4 hPa West 8 km/h 14.5 km/h 68% 0 mm
12:29 0.4 °C -5 °C 1010.4 hPa WNW 4.8 km/h 12.9 km/h 67% 0 mm
12:34 1 °C -3.9 °C 1010.4 hPa NW 8 km/h 9.7 km/h 70% 0 mm
12:39 1.1 °C -4.4 °C 1010.7 hPa WSW 8 km/h 16.1 km/h 67% 0 mm
12:44 1.6 °C -3.5 °C 1010.7 hPa WNW 4.8 km/h 11.3 km/h 69% 0 mm
12:49 1.9 °C -3.7 °C 1010.4 hPa NW 4.8 km/h 12.9 km/h 66% 0 mm
12:54 1.5 °C -3.8 °C 1010 hPa NW 6.4 km/h 12.9 km/h 68% 0 mm
12:59 1.4 °C -4.2 °C 1010.4 hPa NW 6.4 km/h 12.9 km/h 66% 0 mm
13:04 1.2 °C -4.2 °C 1010.4 hPa NW 6.4 km/h 12.9 km/h 67% 0 mm
13:09 1.2 °C -4.3 °C 1010.4 hPa NW 8 km/h 17.7 km/h 67% 0 mm
13:14 0.8 °C -4.4 °C 1010.4 hPa NNW 3.2 km/h 16.1 km/h 68% 0 mm
13:19 0.7 °C -4.5 °C 1010.4 hPa North 6.4 km/h 12.9 km/h 68% 0 mm
13:24 0.7 °C -4.6 °C 1010.4 hPa NW 3.2 km/h 14.5 km/h 68% 0 mm
13:29 0.6 °C -4.4 °C 1010.4 hPa NW 6.4 km/h 14.5 km/h 69% 0 mm
13:34 0.7 °C -4.4 °C 1010.4 hPa WNW 6.4 km/h 14.5 km/h 69% 0 mm
13:39 0.8 °C -4.2 °C 1010.4 hPa NW 9.7 km/h 11.3 km/h 69% 0 mm
13:44 0.8 °C -4.2 °C 1010.4 hPa WNW 8 km/h 17.7 km/h 69% 0 mm
13:49 0.6 °C -5 °C 1010.4 hPa NNW 3.2 km/h 12.9 km/h 66% 0 mm
13:54 0.7 °C -4.6 °C 1010.4 hPa NW 6.4 km/h 14.5 km/h 68% 0 mm
13:59 0.7 °C -4.4 °C 1010.4 hPa NW 6.4 km/h 16.1 km/h 69% 0 mm
14:04 0.3 °C -4.9 °C 1010.4 hPa NNW 8 km/h 16.1 km/h 68% 0 mm
14:09 0.2 °C -4.8 °C 1010.4 hPa NNW 8 km/h 16.1 km/h 69% 0 mm
14:14 0.3 °C -4.7 °C 1010.4 hPa NW 8 km/h 17.7 km/h 69% 0 mm
14:19 0.4 °C -4.8 °C 1010.4 hPa NW 6.4 km/h 17.7 km/h 68% 0 mm
14:24 0.3 °C -5.1 °C 1010.4 hPa NW 6.4 km/h 14.5 km/h 67% 0 mm
14:29 0.3 °C -4.9 °C 1010.4 hPa NNW 4.8 km/h 11.3 km/h 68% 0 mm
14:34 0.3 °C -5.1 °C 1010.4 hPa NW 6.4 km/h 12.9 km/h 67% 0 mm
14:39 0.3 °C -5.1 °C 1010.4 hPa NNW 8 km/h 9.7 km/h 67% 0 mm
14:44 0.3 °C -4.6 °C 1010.7 hPa NW 8 km/h 14.5 km/h 70% 0 mm
14:49 0.2 °C -4.1 °C 1010.7 hPa NW 9.7 km/h 16.1 km/h 73% 0 mm
14:54 -0.1 °C -4.2 °C 1010.7 hPa NNW 6.4 km/h 12.9 km/h 74% 0 mm
14:59 -0.3 °C -4.2 °C 1010.7 hPa NNW 4.8 km/h 16.1 km/h 75% 0 mm
15:04 -0.3 °C -4.2 °C 1010.7 hPa NNW 6.4 km/h 14.5 km/h 75% 0 mm
15:09 -0.3 °C -4.2 °C 1010.7 hPa NNW 6.4 km/h 16.1 km/h 75% 0 mm
15:14 -0.5 °C -4.4 °C 1010.7 hPa NNW 6.4 km/h 16.1 km/h 75% 0 mm
15:19 -0.7 °C -4.6 °C 1010.7 hPa NNW 6.4 km/h 14.5 km/h 75% 0 mm
15:24 -0.7 °C -4.6 °C 1010.7 hPa NNW 4.8 km/h 12.9 km/h 75% 0 mm
15:29 -0.8 °C -4.7 °C 1011.1 hPa North 4.8 km/h 14.5 km/h 75% 0 mm
15:34 -1.1 °C -5 °C 1010.7 hPa North 6.4 km/h 14.5 km/h 75% 0 mm
15:39 -1.2 °C -5.3 °C 1011.1 hPa North 4.8 km/h 9.7 km/h 74% 0 mm
15:44 -1.2 °C -5.3 °C 1011.1 hPa NNE 6.4 km/h 11.3 km/h 74% 0 mm
15:49 -1.2 °C -5.1 °C 1011.1 hPa North 8 km/h 9.7 km/h 75% 0 mm
15:54 -1.2 °C -5.4 °C 1010.7 hPa NE 3.2 km/h 11.3 km/h 73% 0 mm
15:59 -1.1 °C -5.3 °C 1011.1 hPa NNW 6.4 km/h 9.7 km/h 73% 0 mm
16:04 -1.1 °C -5.3 °C 1010.7 hPa North 4.8 km/h 9.7 km/h 73% 0 mm
16:09 -1 °C -5.1 °C 1010.7 hPa North 1.6 km/h 8 km/h 74% 0 mm
16:14 -1.1 °C -5.1 °C 1010.7 hPa North 4.8 km/h 9.7 km/h 74% 0 mm
16:19 -1.1 °C -5.3 °C 1011.1 hPa North 3.2 km/h 11.3 km/h 73% 0 mm
16:24 -1.2 °C -5.4 °C 1011.1 hPa North 4.8 km/h 11.3 km/h 73% 0 mm
16:29 -1.3 °C -5.5 °C 1011.1 hPa North 4.8 km/h 11.3 km/h 73% 0 mm
16:34 -1.3 °C -5.5 °C 1011.1 hPa North 3.2 km/h 9.7 km/h 73% 0 mm
16:39 -1.3 °C -5.5 °C 1011.1 hPa NNW 3.2 km/h 8 km/h 73% 0 mm
16:44 -1.3 °C -5.3 °C 1011.1 hPa NNW 4.8 km/h 8 km/h 74% 0 mm
16:49 -1.3 °C -5.5 °C 1011.1 hPa NNW 3.2 km/h 8 km/h 73% 0 mm
16:54 -1.4 °C -5.6 °C 1011.1 hPa North 1.6 km/h 8 km/h 73% 0 mm
16:59 -1.4 °C -5.4 °C 1011.1 hPa NW 8 km/h 8 km/h 74% 0 mm
17:04 -1.5 °C -5.6 °C 1011.1 hPa North 4.8 km/h 8 km/h 74% 0 mm
17:09 -1.6 °C -5.8 °C 1010.7 hPa NNW 4.8 km/h 8 km/h 73% 0 mm
17:14 -1.6 °C -5.7 °C 1011.1 hPa NNW 3.2 km/h 6.4 km/h 74% 0 mm
17:19 -1.6 °C -5.7 °C 1011.1 hPa NNW 3.2 km/h 6.4 km/h 74% 0 mm
17:24 -1.6 °C -5.7 °C 1011.1 hPa North 3.2 km/h 6.4 km/h 74% 0 mm
17:29 -1.6 °C -5.8 °C 1011.4 hPa NNW 3.2 km/h 9.7 km/h 73% 0 mm
17:34 -1.6 °C -5.6 °C 1011.4 hPa NNW 3.2 km/h 9.7 km/h 74% 0 mm
17:39 -1.5 °C -5.6 °C 1011.4 hPa NNW 3.2 km/h 8 km/h 74% 0 mm
17:44 -1.6 °C -5.6 °C 1011.4 hPa NNW 4.8 km/h 8 km/h 74% 0 mm
17:49 -1.6 °C -5.6 °C 1011.1 hPa NNE 3.2 km/h 9.7 km/h 74% 0 mm
17:54 -1.6 °C -5.6 °C 1011.1 hPa NNW 4.8 km/h 9.7 km/h 74% 0 mm
17:59 -1.6 °C -5.6 °C 1011.4 hPa NNW 1.6 km/h 9.7 km/h 74% 0 mm
18:04 -1.5 °C -5.3 °C 1011.1 hPa NW 6.4 km/h 9.7 km/h 75% 0 mm
18:09 -1.5 °C -5.3 °C 1011.1 hPa North 8 km/h 9.7 km/h 75% 0 mm
18:14 -1.5 °C -5.3 °C 1011.4 hPa North 4.8 km/h 8 km/h 75% 0 mm
18:19 -1.5 °C -5.3 °C 1011.4 hPa NW 6.4 km/h 9.7 km/h 75% 0 mm
18:24 -1.5 °C -5.3 °C 1011.1 hPa North 6.4 km/h 9.7 km/h 75% 0 mm
18:29 -1.6 °C -5.6 °C 1011.4 hPa NNW 4.8 km/h 11.3 km/h 74% 0 mm
18:34 -1.6 °C -5.6 °C 1011.4 hPa NNW 6.4 km/h 11.3 km/h 74% 0 mm
18:39 -1.6 °C -5.4 °C 1011.7 hPa NNW 3.2 km/h 11.3 km/h 75% 0 mm
18:44 -1.6 °C -5.8 °C 1011.7 hPa NNW 3.2 km/h 9.7 km/h 73% 0 mm
18:49 -1.6 °C -5.9 °C 1011.7 hPa NNW 4.8 km/h 11.3 km/h 72% 0 mm
18:54 -1.6 °C -6.1 °C 1011.7 hPa NNW 4.8 km/h 11.3 km/h 71% 0 mm
18:59 -1.6 °C -6.1 °C 1011.7 hPa NW 4.8 km/h 9.7 km/h 71% 0 mm
19:04 -1.6 °C -6.4 °C 1011.7 hPa NW 1.6 km/h 9.7 km/h 70% 0 mm
19:09 -1.6 °C -6.1 °C 1011.7 hPa Calm   4.8 km/h 71% 0 mm
19:14 -1.6 °C -6.1 °C 1011.7 hPa WNW 1.6 km/h 8 km/h 71% 0 mm
19:19 -1.6 °C -6.3 °C 1011.7 hPa NNW 4.8 km/h 11.3 km/h 70% 0 mm
19:24 -1.6 °C -6.3 °C 1011.7 hPa NW 3.2 km/h 12.9 km/h 70% 0 mm
19:29 -1.6 °C -6.3 °C 1011.7 hPa NW 6.4 km/h 17.7 km/h 70% 0 mm
19:34 -1.7 °C -5.9 °C 1011.7 hPa NNW 9.7 km/h 22.5 km/h 73% 0 mm
19:39 -2.1 °C -5.7 °C 1011.7 hPa North 12.9 km/h 24.1 km/h 76% 0 mm
19:44 -2.3 °C -5.7 °C 1011.7 hPa North 11.3 km/h 24.1 km/h 78% 0 mm
19:49 -2.6 °C -5.7 °C 1012.1 hPa North 8 km/h 19.3 km/h 79% 0 mm
19:54 -2.8 °C -5.9 °C 1012.1 hPa NNE 8 km/h 17.7 km/h 79% 0 mm
19:59 -2.9 °C -6.1 °C 1012.1 hPa NNE 8 km/h 16.1 km/h 79% 0 mm
20:04 -3.1 °C -6 °C 1012.1 hPa North 9.7 km/h 16.1 km/h 80% 0 mm
20:09 -3.1 °C -6.1 °C 1012.1 hPa NNW 9.7 km/h 12.9 km/h 80% 0 mm
20:14 -3.2 °C -6.1 °C 1012.1 hPa NNW 6.4 km/h 12.9 km/h 80% 0 mm
20:19 -3.2 °C -6.2 °C 1012.4 hPa NW 11.3 km/h 16.1 km/h 80% 0 mm
20:24 -3.3 °C -6.4 °C 1012.4 hPa North 4.8 km/h 16.1 km/h 79% 0 mm
20:29 -3.3 °C -6.4 °C 1012.4 hPa NNE 8 km/h 12.9 km/h 79% 0 mm
20:34 -3.4 °C -6.5 °C 1012.4 hPa North 8 km/h 11.3 km/h 79% 0 mm
20:39 -3.4 °C -6.4 °C 1012.1 hPa NNE 6.4 km/h 11.3 km/h 80% 0 mm
20:44 -3.4 °C -6.4 °C 1012.4 hPa NNE 6.4 km/h 16.1 km/h 80% 0 mm
20:49 -3.4 °C -6.4 °C 1012.1 hPa North 6.4 km/h 16.1 km/h 80% 0 mm
20:54 -3.5 °C -6.4 °C 1012.4 hPa NNE 6.4 km/h 12.9 km/h 80% 0 mm
20:59 -3.5 °C -6.4 °C 1012.4 hPa NNW 4.8 km/h 16.1 km/h 80% 0 mm
21:04 -3.6 °C -6.7 °C 1012.4 hPa North 3.2 km/h 16.1 km/h 79% 0 mm
21:09 -3.7 °C -6.8 °C 1012.4 hPa NW 12.9 km/h 14.5 km/h 79% 0 mm
21:14 -3.7 °C -6.8 °C 1012.4 hPa North 4.8 km/h 14.5 km/h 79% 0 mm
21:19 -3.7 °C -6.8 °C 1012.4 hPa NNW 4.8 km/h 12.9 km/h 79% 0 mm
21:24 -3.8 °C -6.9 °C 1012.4 hPa NE 3.2 km/h 12.9 km/h 79% 0 mm
21:29 -3.9 °C -7 °C 1012.4 hPa NNW 8 km/h 12.9 km/h 79% 0 mm
21:34 -3.9 °C -7 °C 1012.4 hPa North 12.9 km/h 16.1 km/h 79% 0 mm
21:39 -3.9 °C -7.1 °C 1012.4 hPa North 8 km/h 16.1 km/h 79% 0 mm
21:44 -4.1 °C -7.2 °C 1012.4 hPa North 9.7 km/h 19.3 km/h 79% 0 mm
21:49 -4.1 °C -7.2 °C 1012.4 hPa North 8 km/h 19.3 km/h 79% 0 mm
21:54 -4.2 °C -7.3 °C 1012.4 hPa North 8 km/h 14.5 km/h 79% 0 mm
21:59 -4.2 °C -7.3 °C 1012.1 hPa North 8 km/h 14.5 km/h 79% 0 mm
22:04 -4.2 °C -7.3 °C 1012.4 hPa North 6.4 km/h 16.1 km/h 79% 0 mm
22:09 -4.2 °C -7.3 °C 1012.1 hPa North 8 km/h 16.1 km/h 79% 0 mm
22:14 -4.3 °C -7.4 °C 1012.1 hPa North 6.4 km/h 19.3 km/h 79% 0 mm
22:19 -4.3 °C -7.4 °C 1012.4 hPa NNE 6.4 km/h 16.1 km/h 79% 0 mm
22:24 -4.3 °C -7.6 °C 1012.1 hPa NNE 9.7 km/h 12.9 km/h 78% 0 mm
22:29 -4.4 °C -7.7 °C 1012.4 hPa North 6.4 km/h 11.3 km/h 78% 0 mm
22:34 -4.4 °C -7.7 °C 1012.1 hPa NNE 4.8 km/h 12.9 km/h 78% 0 mm
22:39 -4.5 °C -7.8 °C 1012.1 hPa North 8 km/h 12.9 km/h 78% 0 mm
22:44 -4.5 °C -7.8 °C 1012.1 hPa NNE 6.4 km/h 11.3 km/h 78% 0 mm
22:49 -4.6 °C -7.7 °C 1011.7 hPa NNE 8 km/h 14.5 km/h 79% 0 mm
22:54 -4.7 °C -7.6 °C 1011.7 hPa NNE 8 km/h 14.5 km/h 80% 0 mm
22:59 -4.8 °C -7.4 °C 1012.1 hPa North 6.4 km/h 12.9 km/h 82% 0 mm
23:04 -4.9 °C -7.3 °C 1012.1 hPa North 6.4 km/h 12.9 km/h 83% 0 mm
23:09 -5.1 °C -7.3 °C 1012.1 hPa NNW 16.1 km/h 16.1 km/h 84% 0 mm
23:14 -5.3 °C -7.4 °C 1012.1 hPa North 8 km/h 22.5 km/h 85% 0 mm
23:19 -5.6 °C -7.7 °C 1012.1 hPa NNW 9.7 km/h 19.3 km/h 85% 0 mm
23:24 -5.7 °C -7.7 °C 1012.1 hPa North 8 km/h 19.3 km/h 86% 0 mm
23:29 -5.8 °C -7.7 °C 1012.1 hPa NNE 6.4 km/h 17.7 km/h 86% 0 mm
23:34 -5.9 °C -7.8 °C 1012.1 hPa North 12.9 km/h 17.7 km/h 86% 0 mm
23:39 -6 °C -7.8 °C 1012.1 hPa North 9.7 km/h 14.5 km/h 87% 0 mm
23:44 -6.1 °C -7.9 °C 1012.1 hPa NNE 4.8 km/h 20.9 km/h 87% 0 mm
23:49 -6.2 °C -8 °C 1012.4 hPa North 14.5 km/h 16.1 km/h 87% 0 mm
23:54 -6.3 °C -8.1 °C 1012.1 hPa North 9.7 km/h 16.1 km/h 87% 0 mm
23:59 -6.3 °C -8.1 °C 1012.1 hPa NNE 8 km/h 14.5 km/h 87% 0 mm
Buffalo, New York, USA
Compliments of Weather Underground - 2.5 mb